Time;durP1;ratioP1;P1;durP2;ratioP2;P2;SDS_P1;SDS_P2;PMS_P1;PMS_P2;Temp;Humidity;BMP_temperature;BMP_pressure;BME280_temperature;BME280_humidity;BME280_pressure;Samples;Min_cycle;Max_cycle;Signal;HPM_P1;HPM_P2
2023/01/22 00:01:40;;;;;;;12.57;6.60;;;-0.10;99.90;;;;;;5094168;28;20048;-62
2023/01/22 00:04:13;;;;;;;12.30;6.68;;;0.00;99.90;;;;;;5096618;28;20052;-62
2023/01/22 00:06:39;;;;;;;13.80;7.47;;;-0.10;99.90;;;;;;5091305;28;20044;-63
2023/01/22 00:09:04;;;;;;;10.57;6.20;;;0.00;99.90;;;;;;5092397;28;20349;-62
2023/01/22 00:11:30;;;;;;;13.05;6.63;;;0.00;99.90;;;;;;5090477;28;20437;-62
2023/01/22 00:13:55;;;;;;;12.27;7.05;;;-0.10;99.90;;;;;;5084040;28;20153;-62
2023/01/22 00:16:21;;;;;;;13.45;7.28;;;-0.10;99.90;;;;;;5093297;28;20097;-62
2023/01/22 00:18:47;;;;;;;12.88;6.80;;;-0.10;99.90;;;;;;5092430;28;20035;-62
2023/01/22 00:21:13;;;;;;;15.20;7.20;;;-0.10;99.90;;;;;;5098703;28;20048;-61
2023/01/22 00:23:39;;;;;;;11.70;6.78;;;-0.10;99.90;;;;;;5089157;28;20051;-62
2023/01/22 00:26:11;;;;;;;14.65;6.90;;;-0.20;99.90;;;;;;5098703;28;20088;-61
2023/01/22 00:28:37;;;;;;;11.02;6.30;;;-0.10;99.90;;;;;;5076514;28;20051;-61
2023/01/22 00:31:05;;;;;;;11.15;6.53;;;-0.10;99.90;;;;;;5090871;28;20127;-63
2023/01/22 00:33:32;;;;;;;10.52;6.25;;;-0.20;99.90;;;;;;5099500;28;20476;-62
2023/01/22 00:36:12;;;;;;;11.98;7.03;;;-0.20;99.90;;;;;;5093073;28;20380;-62
2023/01/22 00:38:38;;;;;;;13.63;6.55;;;-0.20;99.90;;;;;;5080279;28;20428;-62
2023/01/22 00:41:06;;;;;;;11.82;7.00;;;-0.30;99.90;;;;;;5096925;28;20131;-62
2023/01/22 00:43:33;;;;;;;13.27;6.55;;;-0.30;99.90;;;;;;5093753;28;20044;-62
2023/01/22 00:46:00;;;;;;;13.10;6.80;;;-0.40;99.90;;;;;;5098422;28;20043;-62
2023/01/22 00:48:26;;;;;;;10.52;6.00;;;-0.30;99.90;;;;;;5090678;28;20114;-63
2023/01/22 00:50:52;;;;;;;11.57;6.95;;;-0.30;99.90;;;;;;5092141;28;20040;-62
2023/01/22 00:53:17;;;;;;;12.65;7.30;;;-0.40;99.90;;;;;;5094353;28;20040;-62
2023/01/22 00:55:53;;;;;;;14.63;6.88;;;-0.40;99.90;;;;;;5080583;28;20089;-63
2023/01/22 00:58:18;;;;;;;11.40;7.05;;;-0.40;99.90;;;;;;5091784;28;20032;-62
2023/01/22 01:00:48;;;;;;;12.95;6.82;;;-0.30;99.90;;;;;;5095955;28;20501;-62
2023/01/22 01:03:26;;;;;;;11.77;6.80;;;-0.30;99.90;;;;;;5093916;28;20052;-61
2023/01/22 01:06:06;;;;;;;11.68;6.57;;;-0.40;99.90;;;;;;5090735;28;20100;-61
2023/01/22 01:08:34;;;;;;;11.90;7.32;;;-0.50;99.90;;;;;;5089201;28;20131;-61
2023/01/22 01:11:03;;;;;;;12.93;6.85;;;-0.50;99.90;;;;;;5097785;28;20028;-61
2023/01/22 01:13:32;;;;;;;13.05;6.55;;;-0.60;99.90;;;;;;5088207;28;20097;-60
2023/01/22 01:16:03;;;;;;;13.70;7.55;;;-0.60;99.90;;;;;;5093572;28;20351;-62
2023/01/22 01:18:29;;;;;;;12.95;6.72;;;-0.60;99.90;;;;;;5091526;28;20047;-62
2023/01/22 01:20:56;;;;;;;10.23;6.25;;;-0.60;99.90;;;;;;5093148;28;20391;-62
2023/01/22 01:23:22;;;;;;;12.60;7.15;;;-0.60;99.90;;;;;;5088516;28;20037;-63
2023/01/22 01:25:48;;;;;;;11.32;6.25;;;-0.50;99.90;;;;;;5096624;28;20037;-62
2023/01/22 01:28:14;;;;;;;10.40;5.95;;;-0.50;99.90;;;;;;5092207;28;20118;-62
2023/01/22 01:30:39;;;;;;;12.60;6.70;;;-0.50;99.90;;;;;;5093936;28;20442;-62
2023/01/22 01:33:05;;;;;;;11.50;6.57;;;-0.50;99.90;;;;;;5095175;28;20028;-62
2023/01/22 01:35:30;;;;;;;10.68;6.03;;;-0.50;99.90;;;;;;5089228;28;20051;-62
2023/01/22 01:37:56;;;;;;;11.48;6.25;;;-0.50;99.90;;;;;;5089226;28;20036;-62
2023/01/22 01:40:27;;;;;;;12.45;10.15;;;-0.40;99.90;;;;;;5097391;28;20039;-62
2023/01/22 01:42:52;;;;;;;13.60;7.10;;;-0.40;99.90;;;;;;5088924;28;20717;-62
2023/01/22 01:45:24;;;;;;;11.32;6.00;;;-0.40;99.90;;;;;;5099461;28;20023;-61
2023/01/22 01:48:09;;;;;;;13.55;6.38;;;-0.30;99.90;;;;;;5087875;28;20035;-61
2023/01/22 01:50:38;;;;;;;13.23;6.78;;;-0.20;99.90;;;;;;5087335;28;20437;-60
2023/01/22 01:53:05;;;;;;;11.65;6.32;;;-0.20;99.90;;;;;;5102214;28;20043;-62
2023/01/22 01:55:33;;;;;;;12.95;6.68;;;-0.20;99.90;;;;;;5091683;28;20075;-61
2023/01/22 01:58:07;;;;;;;12.48;6.70;;;-0.30;99.90;;;;;;5091767;28;20043;-62
2023/01/22 02:00:37;;;;;;;11.77;6.13;;;-0.20;99.90;;;;;;5087013;28;20629;-63
2023/01/22 02:03:03;;;;;;;13.00;6.57;;;-0.10;99.90;;;;;;5093498;28;20055;-60
2023/01/22 02:05:34;;;;;;;13.05;7.22;;;0.00;99.90;;;;;;5074764;28;20056;-61
2023/01/22 02:08:00;;;;;;;13.48;7.05;;;-0.20;99.90;;;;;;5090018;28;20047;-61
2023/01/22 02:10:26;;;;;;;14.23;7.03;;;-0.10;99.90;;;;;;5092954;28;20036;-61
2023/01/22 02:12:55;;;;;;;16.88;7.05;;;-0.20;99.90;;;;;;5102040;28;20032;-61
2023/01/22 02:15:20;;;;;;;18.58;7.78;;;-0.30;99.90;;;;;;5087560;28;20108;-62
2023/01/22 02:17:47;;;;;;;12.15;6.20;;;-0.30;99.90;;;;;;5094230;28;20520;-61
2023/01/22 02:20:12;;;;;;;13.38;7.00;;;-0.20;99.90;;;;;;5091950;28;20229;-62
2023/01/22 02:22:39;;;;;;;12.80;5.95;;;-0.30;99.90;;;;;;5091312;28;20115;-62
2023/01/22 02:25:05;;;;;;;18.02;8.10;;;-0.30;99.90;;;;;;5089198;28;20047;-61
2023/01/22 02:27:30;;;;;;;11.95;6.82;;;-0.50;99.90;;;;;;5094166;28;20445;-60
2023/01/22 02:29:56;;;;;;;13.98;6.93;;;-0.40;99.90;;;;;;5093459;28;20064;-60
2023/01/22 02:32:21;;;;;;;16.05;7.97;;;-0.30;99.90;;;;;;5092663;28;20132;-60
2023/01/22 02:34:47;;;;;;;14.00;5.72;;;-0.20;99.90;;;;;;5087411;28;20040;-62
2023/01/22 02:37:13;;;;;;;13.43;6.93;;;-0.40;99.90;;;;;;5093845;28;20036;-62
2023/01/22 02:39:38;;;;;;;16.65;7.70;;;-0.30;99.90;;;;;;5089838;28;20039;-62
2023/01/22 02:42:06;;;;;;;17.60;8.20;;;-0.40;99.90;;;;;;5098007;28;20032;-62
2023/01/22 02:44:31;;;;;;;14.63;7.75;;;-0.40;99.90;;;;;;5090329;28;20092;-61
2023/01/22 02:46:57;;;;;;;16.27;8.13;;;-0.40;99.90;;;;;;5087472;28;20115;-61
2023/01/22 02:49:23;;;;;;;15.05;6.82;;;-0.50;99.90;;;;;;5089786;28;20040;-61
2023/01/22 02:51:48;;;;;;;17.23;7.80;;;-0.50;99.90;;;;;;5090103;28;20368;-61
2023/01/22 02:54:14;;;;;;;15.93;7.00;;;-0.50;99.90;;;;;;5097413;28;20504;-61
2023/01/22 02:56:39;;;;;;;15.18;8.18;;;-0.50;99.90;;;;;;5069366;28;20426;-61
2023/01/22 02:59:05;;;;;;;16.27;8.18;;;-0.60;99.90;;;;;;5090684;28;20108;-61
2023/01/22 03:01:31;;;;;;;15.02;6.90;;;-0.60;99.90;;;;;;5066039;28;20040;-61
2023/01/22 03:04:10;;;;;;;13.75;6.65;;;-0.50;99.90;;;;;;5080092;28;20076;-60
2023/01/22 03:06:38;;;;;;;16.75;7.57;;;-0.50;99.90;;;;;;5077134;28;20045;-62
2023/01/22 03:09:04;;;;;;;16.48;8.52;;;-0.50;99.90;;;;;;5080346;28;20040;-61
2023/01/22 03:11:32;;;;;;;12.95;6.60;;;-0.50;99.90;;;;;;5064351;28;20063;-62
2023/01/22 03:22:14;;;;;;;15.52;7.00;;;-0.30;99.90;;;;;;5080209;28;20097;-59
2023/01/22 03:24:40;;;;;;;17.08;7.63;;;-0.30;99.90;;;;;;5080450;28;20445;-60
2023/01/22 03:27:06;;;;;;;14.20;7.40;;;-0.30;99.90;;;;;;5080882;28;20043;-61
2023/01/22 03:29:32;;;;;;;15.57;7.80;;;-0.30;99.90;;;;;;5081481;28;20041;-62
2023/01/22 03:31:57;;;;;;;12.80;7.13;;;-0.20;99.90;;;;;;5081253;28;20036;-60
2023/01/22 03:34:24;;;;;;;14.45;7.10;;;-0.20;99.90;;;;;;5080074;28;20055;-62
2023/01/22 03:36:49;;;;;;;16.52;7.70;;;-0.10;99.90;;;;;;5062774;28;20041;-61
2023/01/22 03:39:15;;;;;;;14.60;7.38;;;-0.20;99.90;;;;;;5079252;28;20040;-61
2023/01/22 03:41:41;;;;;;;15.05;7.22;;;-0.10;99.90;;;;;;5047098;28;20040;-61
2023/01/22 03:44:10;;;;;;;12.95;7.05;;;-0.10;99.90;;;;;;5060186;28;20472;-62
2023/01/22 03:46:38;;;;;;;10.60;5.82;;;0.00;99.90;;;;;;5063838;28;20054;-62
2023/01/22 03:49:03;;;;;;;14.38;7.55;;;-0.10;99.90;;;;;;5061620;28;20037;-62
2023/01/22 03:51:29;;;;;;;14.88;7.45;;;0.10;99.90;;;;;;5080911;28;20094;-61
2023/01/22 03:53:54;;;;;;;15.48;7.03;;;0.10;99.90;;;;;;5080157;28;20024;-61
2023/01/22 03:56:22;;;;;;;16.73;7.50;;;0.00;99.90;;;;;;5080871;28;20037;-61
2023/01/22 03:58:49;;;;;;;13.88;7.35;;;0.10;99.90;;;;;;5057600;28;20120;-61
2023/01/22 04:01:17;;;;;;;14.38;7.15;;;0.20;99.90;;;;;;5065208;28;20051;-61
2023/01/22 04:03:46;;;;;;;14.55;7.47;;;0.20;99.90;;;;;;5071074;28;20104;-61
2023/01/22 04:06:12;;;;;;;12.55;6.53;;;0.10;99.90;;;;;;5090637;28;20422;-62
2023/01/22 04:08:40;;;;;;;15.57;7.32;;;0.30;99.90;;;;;;5087815;28;20052;-62
2023/01/22 04:11:06;;;;;;;12.77;5.60;;;0.20;99.90;;;;;;5097983;28;20031;-60
2023/01/22 04:13:33;;;;;;;17.98;12.25;;;0.30;99.90;;;;;;5102955;28;20047;-61
2023/01/22 04:15:59;;;;;;;14.48;6.28;;;0.50;99.90;;;;;;5070753;28;20044;-62
2023/01/22 04:18:25;;;;;;;13.80;10.75;;;0.50;99.90;;;;;;5094718;28;20035;-60
2023/01/22 04:20:51;;;;;;;12.57;5.47;;;0.60;99.90;;;;;;5094405;28;20043;-62
2023/01/22 04:23:18;;;;;;;10.95;5.10;;;0.50;99.90;;;;;;5071090;28;20071;-61
2023/01/22 04:25:44;;;;;;;9.77;5.13;;;0.60;99.90;;;;;;5082153;28;20036;-61
2023/01/22 04:28:11;;;;;;;8.13;5.03;;;0.50;99.90;;;;;;5093062;28;20047;-62
2023/01/22 04:30:37;;;;;;;10.45;6.10;;;0.60;99.90;;;;;;5102025;28;20097;-61
2023/01/22 04:33:03;;;;;;;10.13;5.68;;;0.60;99.90;;;;;;5078026;28;20040;-62
2023/01/22 04:35:29;;;;;;;12.45;9.20;;;0.50;99.90;;;;;;5078582;28;20040;-62
2023/01/22 04:37:56;;;;;;;9.68;4.90;;;0.60;99.90;;;;;;5094752;28;20047;-62
2023/01/22 04:40:22;;;;;;;10.27;5.13;;;0.70;99.90;;;;;;5080558;28;20460;-61
2023/01/22 04:42:48;;;;;;;9.57;4.28;;;0.70;99.90;;;;;;5073324;28;20036;-62
2023/01/22 04:45:14;;;;;;;7.95;5.05;;;0.80;99.90;;;;;;5070586;28;20040;-61
2023/01/22 04:47:41;;;;;;;10.82;4.82;;;0.70;99.90;;;;;;5072633;28;20059;-61
2023/01/22 04:50:22;;;;;;;7.22;3.92;;;0.80;99.90;;;;;;5069008;28;20044;-62
2023/01/22 04:52:55;;;;;;;7.38;4.30;;;0.80;99.90;;;;;;5068691;28;20044;-61
2023/01/22 04:55:21;;;;;;;12.13;5.60;;;1.10;99.90;;;;;;5079921;28;20044;-61
2023/01/22 04:57:47;;;;;;;8.65;4.40;;;0.70;99.90;;;;;;5089101;28;20078;-61
2023/01/22 05:00:13;;;;;;;10.75;4.70;;;0.80;99.90;;;;;;5071888;28;20039;-62
2023/01/22 05:02:41;;;;;;;9.55;5.03;;;0.80;99.90;;;;;;5091336;28;20222;-61
2023/01/22 05:05:13;;;;;;;8.65;4.50;;;0.80;99.90;;;;;;5089182;28;20326;-61
2023/01/22 05:07:39;;;;;;;9.23;4.53;;;0.80;99.90;;;;;;5078545;28;20087;-61
2023/01/22 05:10:05;;;;;;;11.07;5.00;;;0.80;99.90;;;;;;5094610;28;20063;-61
2023/01/22 05:12:30;;;;;;;7.53;3.92;;;0.80;99.90;;;;;;5072680;28;20051;-62
2023/01/22 05:14:56;;;;;;;9.63;4.85;;;1.00;99.90;;;;;;5094926;28;20099;-62
2023/01/22 05:17:22;;;;;;;9.77;4.55;;;0.90;99.90;;;;;;5081752;28;20435;-61
2023/01/22 05:19:47;;;;;;;7.50;4.28;;;0.90;99.90;;;;;;5091041;28;20037;-62
2023/01/22 05:22:13;;;;;;;10.98;4.28;;;0.90;99.90;;;;;;5077616;28;20040;-62
2023/01/22 05:24:38;;;;;;;9.77;3.95;;;0.80;99.90;;;;;;5075660;28;20521;-62
2023/01/22 05:27:04;;;;;;;7.82;4.40;;;0.90;99.90;;;;;;5069587;28;20036;-62
2023/01/22 05:29:29;;;;;;;7.97;3.80;;;0.90;99.90;;;;;;5073138;28;20044;-62
2023/01/22 05:31:56;;;;;;;11.48;4.95;;;0.90;99.90;;;;;;5077082;28;20088;-61
2023/01/22 05:34:23;;;;;;;8.88;4.43;;;1.00;99.90;;;;;;5090158;28;20040;-62
2023/01/22 05:36:48;;;;;;;7.57;3.80;;;1.00;99.90;;;;;;5096709;28;20040;-62
2023/01/22 05:39:15;;;;;;;7.28;4.32;;;1.00;99.90;;;;;;5073887;28;20039;-61
2023/01/22 05:41:41;;;;;;;6.70;3.08;;;1.00;99.90;;;;;;5096981;28;20043;-62
2023/01/22 05:44:10;;;;;;;7.85;3.97;;;1.00;99.90;;;;;;5072797;28;20456;-61
2023/01/22 05:46:36;;;;;;;7.93;3.88;;;1.00;99.90;;;;;;5090948;28;20115;-61
2023/01/22 05:49:03;;;;;;;6.78;3.38;;;1.10;99.90;;;;;;5067852;28;20151;-61
2023/01/22 05:51:29;;;;;;;8.45;3.72;;;1.00;99.90;;;;;;5090078;28;20460;-60
2023/01/22 05:53:54;;;;;;;8.23;3.70;;;1.10;99.90;;;;;;5089559;28;20094;-62
2023/01/22 05:56:20;;;;;;;9.80;4.30;;;1.10;99.90;;;;;;5095376;28;20079;-61
2023/01/22 05:58:46;;;;;;;8.32;3.95;;;1.10;99.90;;;;;;5087372;28;20058;-62
2023/01/22 06:01:11;;;;;;;6.25;3.55;;;1.00;99.90;;;;;;5069709;28;20401;-61
2023/01/22 06:03:38;;;;;;;7.53;4.32;;;1.00;99.90;;;;;;5096652;28;20051;-61
2023/01/22 06:06:07;;;;;;;7.70;4.05;;;1.00;99.90;;;;;;5096093;28;20055;-61
2023/01/22 06:08:33;;;;;;;6.55;2.88;;;1.00;99.90;;;;;;5091379;28;20062;-62
2023/01/22 06:11:10;;;;;;;8.68;3.70;;;1.10;99.90;;;;;;5079305;28;20075;-61
2023/01/22 06:13:36;;;;;;;8.10;3.63;;;1.10;99.90;;;;;;5088553;28;20054;-60
2023/01/22 06:16:06;;;;;;;6.95;3.85;;;1.10;99.90;;;;;;5092306;28;20430;-61
2023/01/22 06:18:32;;;;;;;7.25;4.30;;;1.10;99.90;;;;;;5093347;28;20527;-60
2023/01/22 06:20:59;;;;;;;7.32;4.07;;;1.00;99.90;;;;;;5090759;28;20056;-61
2023/01/22 06:23:26;;;;;;;7.53;3.97;;;1.10;99.90;;;;;;5095099;28;20056;-61
2023/01/22 06:25:53;;;;;;;7.57;4.15;;;1.00;99.90;;;;;;5093398;28;20052;-61
2023/01/22 06:28:19;;;;;;;7.85;4.22;;;1.00;99.90;;;;;;5095927;28;20089;-62
2023/01/22 06:30:45;;;;;;;8.95;4.20;;;1.10;99.90;;;;;;5086611;28;20036;-62
2023/01/22 06:33:10;;;;;;;6.72;3.95;;;1.10;99.90;;;;;;5093674;28;20111;-61
2023/01/22 06:35:36;;;;;;;7.97;3.72;;;1.10;99.90;;;;;;5094239;28;20047;-62
2023/01/22 06:38:01;;;;;;;6.25;3.97;;;1.10;99.90;;;;;;5087811;28;20102;-61
2023/01/22 06:40:27;;;;;;;9.73;5.88;;;1.10;99.90;;;;;;5089845;28;20036;-60
2023/01/22 06:42:52;;;;;;;7.40;3.80;;;1.10;99.90;;;;;;5090800;28;20036;-62
2023/01/22 06:45:18;;;;;;;5.35;3.13;;;1.10;99.90;;;;;;5091017;28;20120;-62
2023/01/22 06:47:44;;;;;;;10.73;4.10;;;1.10;99.90;;;;;;5094476;28;20382;-62
2023/01/22 06:50:11;;;;;;;9.98;3.58;;;1.10;99.90;;;;;;5090046;28;20056;-62
2023/01/22 06:52:37;;;;;;;5.75;3.47;;;1.00;99.90;;;;;;5091344;28;20048;-62
2023/01/22 06:55:03;;;;;;;6.97;3.90;;;1.10;99.90;;;;;;5088785;28;20062;-62
2023/01/22 06:57:29;;;;;;;7.20;3.42;;;1.10;99.90;;;;;;5090916;28;20042;-61
2023/01/22 06:59:54;;;;;;;8.15;4.00;;;1.10;99.90;;;;;;5092274;28;20040;-62
2023/01/22 07:02:27;;;;;;;8.32;4.32;;;1.10;99.90;;;;;;5093325;28;20056;-62
2023/01/22 07:04:52;;;;;;;8.10;4.32;;;1.00;99.90;;;;;;5087691;28;20133;-61
2023/01/22 07:07:24;;;;;;;8.15;4.20;;;1.00;99.90;;;;;;5094381;28;20503;-61
2023/01/22 07:09:53;;;;;;;7.75;3.83;;;1.00;99.90;;;;;;5094009;28;20068;-61
2023/01/22 07:12:18;;;;;;;6.95;3.90;;;1.00;99.90;;;;;;5095885;28;20036;-61
2023/01/22 07:14:44;;;;;;;9.27;4.35;;;0.90;99.90;;;;;;5091026;28;20044;-63
2023/01/22 07:17:09;;;;;;;10.30;4.55;;;1.00;99.90;;;;;;5089431;28;20036;-62
2023/01/22 07:19:35;;;;;;;7.95;4.07;;;1.00;99.90;;;;;;5089805;28;20127;-63
2023/01/22 07:22:00;;;;;;;9.52;6.53;;;0.90;99.90;;;;;;5091458;28;20114;-62
2023/01/22 07:24:26;;;;;;;8.30;4.88;;;1.00;99.90;;;;;;5088384;28;20040;-62
2023/01/22 07:26:51;;;;;;;9.45;4.72;;;1.10;99.90;;;;;;5074752;28;20050;-62
2023/01/22 07:29:17;;;;;;;7.38;4.07;;;0.90;99.90;;;;;;5093167;28;20036;-62
2023/01/22 07:31:42;;;;;;;12.60;7.03;;;0.90;99.90;;;;;;5089100;28;20047;-63
2023/01/22 07:34:08;;;;;;;9.50;4.68;;;1.00;99.90;;;;;;5090641;28;20473;-61
2023/01/22 07:36:33;;;;;;;8.98;4.28;;;1.00;99.90;;;;;;5091080;28;20127;-62
2023/01/22 07:39:02;;;;;;;9.18;6.75;;;1.00;99.90;;;;;;5095499;28;20177;-62
2023/01/22 07:41:28;;;;;;;7.50;4.10;;;1.00;99.90;;;;;;5090045;28;20043;-62
2023/01/22 07:43:56;;;;;;;7.25;4.45;;;0.90;99.90;;;;;;5091388;28;20452;-61
2023/01/22 07:46:22;;;;;;;9.60;4.63;;;1.00;99.90;;;;;;5093178;28;21106;-61
2023/01/22 07:48:47;;;;;;;7.07;4.07;;;1.00;99.90;;;;;;5092934;28;20070;-62
2023/01/22 07:51:13;;;;;;;9.93;6.93;;;1.00;99.90;;;;;;5100593;28;20075;-62
2023/01/22 07:53:40;;;;;;;8.30;4.25;;;1.10;99.90;;;;;;5097510;28;20104;-62
2023/01/22 07:56:06;;;;;;;8.32;3.83;;;1.00;99.90;;;;;;5105538;28;20418;-62
2023/01/22 07:58:34;;;;;;;6.97;4.28;;;1.00;99.90;;;;;;5102247;28;20155;-62
2023/01/22 08:01:04;;;;;;;10.07;3.50;;;1.00;99.90;;;;;;5100409;28;20352;-62
2023/01/22 08:03:32;;;;;;;10.93;5.07;;;0.90;99.90;;;;;;5102052;28;20476;-62
2023/01/22 08:06:14;;;;;;;6.35;3.72;;;0.90;99.90;;;;;;5112367;28;20093;-61
2023/01/22 08:08:47;;;;;;;7.65;4.47;;;0.80;99.90;;;;;;5097690;28;20048;-62
2023/01/22 08:11:13;;;;;;;6.70;4.55;;;0.70;99.90;;;;;;5095950;28;20047;-62
2023/01/22 08:13:38;;;;;;;8.50;4.40;;;0.70;99.90;;;;;;5099068;28;20150;-61
2023/01/22 08:16:05;;;;;;;8.55;4.55;;;0.80;99.90;;;;;;5078452;28;20119;-62
2023/01/22 08:18:30;;;;;;;7.40;4.13;;;0.80;99.90;;;;;;5095226;28;20103;-62
2023/01/22 08:20:59;;;;;;;10.77;4.38;;;0.80;99.90;;;;;;5076908;28;20504;-62
2023/01/22 08:23:25;;;;;;;9.52;4.68;;;0.90;99.90;;;;;;5091538;28;20032;-62
2023/01/22 08:25:51;;;;;;;8.68;4.72;;;0.90;99.90;;;;;;5094218;28;20043;-61
2023/01/22 08:28:16;;;;;;;8.27;4.55;;;0.80;99.90;;;;;;5092760;28;20103;-61
2023/01/22 08:30:42;;;;;;;10.73;5.03;;;0.80;99.90;;;;;;5094325;28;20497;-63
2023/01/22 08:33:07;;;;;;;7.70;4.28;;;0.80;99.90;;;;;;5097696;28;20067;-61
2023/01/22 08:35:33;;;;;;;10.02;6.82;;;0.90;99.90;;;;;;5097406;28;20152;-62
2023/01/22 08:37:59;;;;;;;9.57;4.88;;;0.90;99.90;;;;;;5089816;28;20094;-62
2023/01/22 08:40:26;;;;;;;10.07;5.25;;;0.90;99.90;;;;;;5099235;28;20028;-62
2023/01/22 08:42:53;;;;;;;10.68;4.95;;;0.90;99.90;;;;;;5100996;28;20048;-61
2023/01/22 08:45:21;;;;;;;9.80;7.80;;;0.90;99.90;;;;;;5097650;28;20064;-61
2023/01/22 08:47:47;;;;;;;8.60;5.00;;;0.90;99.90;;;;;;5093079;28;20040;-61
2023/01/22 08:50:13;;;;;;;13.43;4.95;;;1.00;99.90;;;;;;5094215;28;20054;-62
2023/01/22 08:52:39;;;;;;;8.60;5.38;;;0.90;99.90;;;;;;5094674;28;20044;-61
2023/01/22 08:55:08;;;;;;;11.85;5.28;;;1.00;99.90;;;;;;5093522;28;20028;-63
2023/01/22 08:57:34;;;;;;;7.82;5.05;;;0.90;99.90;;;;;;5094112;28;20089;-62
2023/01/22 09:00:00;;;;;;;7.45;4.43;;;0.90;99.90;;;;;;5091612;28;20028;-61
2023/01/22 09:02:26;;;;;;;12.50;5.15;;;1.00;99.90;;;;;;5077384;28;20045;-63
2023/01/22 09:04:52;;;;;;;9.77;5.68;;;1.10;99.90;;;;;;5070170;28;20056;-62
2023/01/22 09:07:18;;;;;;;8.90;5.25;;;1.10;99.90;;;;;;5070682;28;20044;-61
2023/01/22 09:09:43;;;;;;;9.50;5.75;;;1.10;99.90;;;;;;5072067;28;20041;-62
2023/01/22 09:12:09;;;;;;;9.30;5.15;;;1.10;99.90;;;;;;5073859;28;20463;-62
2023/01/22 09:14:34;;;;;;;9.00;4.88;;;1.10;99.90;;;;;;5072977;28;20059;-62
2023/01/22 09:17:00;;;;;;;7.90;5.00;;;1.20;99.90;;;;;;5073835;28;20028;-62
2023/01/22 09:19:25;;;;;;;10.25;5.80;;;1.10;99.90;;;;;;5069789;28;20040;-62
2023/01/22 09:21:51;;;;;;;11.18;5.78;;;1.20;99.90;;;;;;5068613;28;20031;-61
2023/01/22 09:24:16;;;;;;;10.27;5.53;;;1.30;99.90;;;;;;5070397;28;20044;-63
2023/01/22 09:26:42;;;;;;;9.65;5.13;;;1.30;99.90;;;;;;5068581;28;20051;-65
2023/01/22 09:29:08;;;;;;;10.45;7.50;;;1.20;99.90;;;;;;5049115;28;20051;-62
2023/01/22 09:31:37;;;;;;;7.97;4.57;;;1.20;99.90;;;;;;5067451;28;20044;-62
2023/01/22 09:34:03;;;;;;;8.98;5.93;;;1.30;99.90;;;;;;5069795;28;20091;-62
2023/01/22 09:36:29;;;;;;;9.77;5.78;;;1.30;99.90;;;;;;5068011;28;20037;-62
2023/01/22 09:38:55;;;;;;;9.60;4.75;;;1.30;99.90;;;;;;5065804;28;20109;-62
2023/01/22 09:41:27;;;;;;;12.00;4.97;;;1.30;99.90;;;;;;5070964;28;20036;-62
2023/01/22 09:44:33;;;;;;;12.15;4.75;;;1.40;99.90;;;;;;5066168;28;20052;-62
2023/01/22 09:47:03;;;;;;;8.95;4.88;;;1.40;99.90;;;;;;5005339;28;20387;-63
2023/01/22 09:49:35;;;;;;;10.35;4.65;;;1.40;99.90;;;;;;5001973;28;20097;-62
2023/01/22 09:52:02;;;;;;;9.82;5.70;;;1.50;99.90;;;;;;5041146;28;20115;-62
2023/01/22 09:54:29;;;;;;;7.80;4.43;;;1.40;99.90;;;;;;5067796;28;20067;-62
2023/01/22 09:56:57;;;;;;;8.18;4.93;;;1.40;99.90;;;;;;5066239;28;20040;-63
2023/01/22 09:59:40;;;;;;;10.48;5.45;;;1.40;99.90;;;;;;5066593;28;20046;-63
2023/01/22 10:02:37;;;;;;;9.05;4.90;;;1.40;99.90;;;;;;5068221;28;20056;-63
2023/01/22 10:05:42;;;;;;;13.38;4.90;;;1.50;99.90;;;;;;5068323;28;20083;-64
2023/01/22 10:08:24;;;;;;;9.18;4.60;;;1.50;99.90;;;;;;5046634;28;20048;-64
2023/01/22 10:10:51;;;;;;;7.95;4.88;;;1.50;99.90;;;;;;5069950;28;20465;-63
2023/01/22 10:13:22;;;;;;;9.60;4.90;;;1.60;99.90;;;;;;5071385;28;20037;-62
2023/01/22 10:15:53;;;;;;;7.25;4.70;;;1.50;99.90;;;;;;5047690;28;20033;-63
2023/01/22 10:18:28;;;;;;;8.52;4.93;;;1.60;99.90;;;;;;5053484;28;20051;-63
2023/01/22 10:20:54;;;;;;;8.77;7.03;;;1.70;99.90;;;;;;5070319;28;20034;-63
2023/01/22 10:23:24;;;;;;;8.75;4.90;;;1.60;99.90;;;;;;5070500;28;20465;-64
2023/01/22 10:26:09;;;;;;;7.78;4.43;;;1.70;99.90;;;;;;5049371;28;20086;-61
2023/01/22 10:28:35;;;;;;;9.35;5.07;;;1.60;99.90;;;;;;5069781;28;20040;-61
2023/01/22 10:31:00;;;;;;;10.15;7.43;;;1.70;99.90;;;;;;5069019;28;20102;-61
2023/01/22 10:33:27;;;;;;;9.15;6.85;;;1.70;99.90;;;;;;5069744;28;20141;-61
2023/01/22 10:35:55;;;;;;;7.10;4.65;;;1.80;99.90;;;;;;5053782;28;20484;-62
2023/01/22 10:38:25;;;;;;;9.68;4.50;;;1.80;99.90;;;;;;5070707;28;20098;-61
2023/01/22 10:40:54;;;;;;;9.68;5.53;;;1.80;99.90;;;;;;5068757;28;20098;-61
2023/01/22 10:43:19;;;;;;;7.88;4.25;;;1.80;99.90;;;;;;5070296;28;20175;-60
2023/01/22 10:46:03;;;;;;;7.93;5.03;;;1.90;99.90;;;;;;5069294;28;20119;-61
2023/01/22 10:48:29;;;;;;;9.93;5.32;;;1.80;99.90;;;;;;5067409;28;20045;-62
2023/01/22 10:51:18;;;;;;;9.02;4.78;;;1.80;99.90;;;;;;5070924;28;20459;-62
2023/01/22 10:53:47;;;;;;;7.05;4.53;;;1.90;99.90;;;;;;5069334;28;20040;-62
2023/01/22 10:56:23;;;;;;;8.80;5.10;;;2.00;99.90;;;;;;5070154;28;20143;-62
2023/01/22 10:58:48;;;;;;;9.70;4.95;;;1.90;99.90;;;;;;5065945;28;20036;-62
2023/01/22 11:01:33;;;;;;;8.00;6.70;;;1.90;99.90;;;;;;5070994;28;20036;-62
2023/01/22 11:04:09;;;;;;;7.63;5.03;;;2.00;99.90;;;;;;5072293;28;20063;-62
2023/01/22 11:06:41;;;;;;;9.48;4.95;;;1.90;99.90;;;;;;5088665;28;20083;-62
2023/01/22 11:09:38;;;;;;;9.02;4.97;;;2.00;99.90;;;;;;5084815;28;20491;-62
2023/01/22 11:12:18;;;;;;;8.88;4.38;;;2.00;99.90;;;;;;5089784;28;20043;-63
2023/01/22 11:14:46;;;;;;;9.73;7.07;;;2.10;99.90;;;;;;5088584;28;20040;-62
2023/01/22 11:17:28;;;;;;;8.60;5.22;;;2.10;99.90;;;;;;5090960;28;20032;-63
2023/01/22 11:20:02;;;;;;;7.75;6.75;;;2.00;99.90;;;;;;5092867;28;20036;-62
2023/01/22 11:22:35;;;;;;;8.05;6.55;;;2.10;99.90;;;;;;5090690;28;20044;-63
2023/01/22 11:25:02;;;;;;;6.60;3.90;;;2.10;99.90;;;;;;5072571;28;20047;-62
2023/01/22 11:27:34;;;;;;;9.48;4.80;;;2.20;99.90;;;;;;5074547;28;20051;-62
2023/01/22 11:30:12;;;;;;;8.20;4.50;;;2.10;99.90;;;;;;5093215;28;20372;-62
2023/01/22 11:33:07;;;;;;;9.07;4.95;;;2.20;99.90;;;;;;5090647;28;20040;-62
2023/01/22 11:35:52;;;;;;;10.25;4.88;;;2.10;99.90;;;;;;5068105;28;20484;-62
2023/01/22 11:38:43;;;;;;;8.88;4.55;;;2.10;99.90;;;;;;5066154;28;20032;-63
2023/01/22 11:41:35;;;;;;;9.85;5.35;;;2.10;99.90;;;;;;5074329;28;20052;-62
2023/01/22 11:44:31;;;;;;;10.68;5.43;;;2.10;99.90;;;;;;5091063;28;20486;-63
2023/01/22 11:47:24;;;;;;;11.73;9.00;;;2.20;99.90;;;;;;5093357;28;20410;-61
2023/01/22 11:50:07;;;;;;;9.68;4.88;;;2.30;99.90;;;;;;5093358;28;20131;-65
2023/01/22 11:52:57;;;;;;;9.23;7.80;;;2.50;99.90;;;;;;5073934;28;20048;-57
2023/01/22 11:56:01;;;;;;;11.45;6.43;;;2.60;99.90;;;;;;5090971;28;20479;-59
2023/01/22 12:00:47;;;;;;;8.65;5.57;;;;;;;;;;5066565;28;20458;-59
2023/01/22 12:03:13;;;;;;;9.18;5.05;;;;;;;;;;5056712;28;20116;-61
2023/01/22 12:05:45;;;;;;;12.90;5.28;;;;;;;;;;5059067;28;20113;-59
2023/01/22 12:08:15;;;;;;;10.57;5.75;;;;;;;;;;5052491;28;20029;-60
2023/01/22 12:12:18;;;;;;;5.32;0.88;;;;;;;;;;5077439;27;2382524;-58
2023/01/22 12:14:56;;;;;;;3.72;1.92;;;;;;;;;;5147443;27;20615;-56
2023/01/22 12:17:28;;;;;;;3.20;2.10;;;;;;;;;;5145996;27;20091;-58
2023/01/22 12:20:07;;;;;;;5.65;2.72;;;;;;;;;;5146533;27;20058;-57
2023/01/22 12:22:51;;;;;;;2.42;1.20;;;;;;;;;;5148613;27;20049;-57
2023/01/22 12:25:17;;;;;;;4.15;2.65;;;;;;;;;;5150285;27;20109;-55
2023/01/22 12:27:46;;;;;;;0.70;0.43;;;;;;;;;;5149842;27;20126;-55
2023/01/22 12:30:20;;;;;;;3.70;1.77;;;;;;;;;;5142915;27;20051;-57
2023/01/22 12:35:41;;;;;;;10.30;7.32;;;;;;;;;;5085623;27;20382;-61
2023/01/22 12:38:25;;;;;;;12.48;7.93;;;;;;;;;;5081930;28;20040;-62
2023/01/22 12:41:06;;;;;;;11.45;7.03;;;;;;;;;;5079567;28;20036;-62
2023/01/22 12:43:32;;;;;;;14.05;7.18;;;;;;;;;;5083407;28;20055;-61
2023/01/22 12:46:08;;;;;;;11.05;7.40;;;;;;;;;;5086493;28;20032;-63
2023/01/22 12:48:39;;;;;;;11.13;7.50;;;;;;;;;;5086639;28;20310;-63
2023/01/22 12:51:05;;;;;;;11.13;7.22;;;;;;;;;;5087465;28;20459;-63
2023/01/22 12:53:37;;;;;;;12.20;7.00;;;;;;;;;;5084228;28;20197;-62
2023/01/22 12:56:05;;;;;;;10.52;6.93;;;;;;;;;;5085625;28;20145;-61
2023/01/22 12:58:35;;;;;;;10.95;7.18;;;;;;;;;;5088800;28;20040;-63
2023/01/22 13:01:12;;;;;;;10.43;7.25;;;;;;;;;;5084189;28;20051;-60
2023/01/22 13:03:39;;;;;;;9.80;6.90;;;;;;;;;;5086269;28;20036;-62
2023/01/22 13:06:19;;;;;;;9.75;7.32;;;;;;;;;;5088633;28;20032;-62
2023/01/22 13:08:45;;;;;;;9.20;6.32;;;;;;;;;;5088386;28;20036;-62
2023/01/22 13:11:13;;;;;;;12.18;6.68;;;;;;;;;;5086500;28;20357;-62
2023/01/22 13:13:50;;;;;;;10.63;7.10;;;;;;;;;;5088939;28;20467;-62
2023/01/22 13:16:42;;;;;;;15.40;7.43;;;;;;;;;;5084277;28;20123;-62
2023/01/22 13:19:19;;;;;;;10.70;7.70;;;;;;;;;;5083798;28;20047;-61
2023/01/22 13:21:45;;;;;;;11.80;6.97;;;;;;;;;;5087996;28;20032;-62
2023/01/22 13:24:13;;;;;;;12.15;7.22;;;;;;;;;;5080864;28;20080;-62